Bookmark and Share
Track history (hours):
 

APL Indonesia

Last reported at 2014-Apr-14 09:34 UTC. Time now 2014-Apr-20 23:48 UTC.
Position N 50°18' W 001°02'.

Length 261 m; draft 11.8 m.

Type: Ship (hazmat cat B). MMSI: 305386000.

NotesDate/timePositionNaut miles runAvg speedWind from/ knotsBaromVisibWave heightAir tempDewpointWater temp
2014-Apr-14 09:34N 50°18' W 001°02'1817.9
2014-Apr-14 08:33N 50°24' W 000°35'3416.9
2014-Apr-14 06:32N 50°33' E 000°16'1717.2
2014-Apr-14 05:33N 50°40' E 000°41'8111.5
2014-Apr-13 22:32N 51°57' E 001°19'0 0.0
2014-Apr-13 21:32N 51°57' E 001°19'0 0.0
2014-Apr-13 20:32N 51°57' E 001°19'0 0.0
2014-Apr-13 19:32N 51°57' E 001°19'0 0.0
2014-Apr-13 18:32N 51°57' E 001°19'0 0.0
2014-Apr-13 17:32N 51°57' E 001°19'0 0.0
2014-Apr-13 15:32N 51°57' E 001°19'0 0.0
2014-Apr-13 14:32N 51°57' E 001°19'0 0.0
2014-Apr-13 13:32N 51°57' E 001°19'0 0.0
2014-Apr-13 12:32N 51°57' E 001°19'0 0.0
2014-Apr-13 11:32N 51°57' E 001°19'0 0.0
2014-Apr-13 10:32N 51°57' E 001°19'0 0.0
2014-Apr-13 09:33N 51°57' E 001°19'0 0.0
2014-Apr-13 08:32N 51°57' E 001°19'0 0.0
2014-Apr-13 07:32N 51°57' E 001°19'0 0.0
2014-Apr-13 06:32N 51°57' E 001°19'0 0.0
2014-Apr-13 05:32N 51°57' E 001°19'0 0.0
2014-Apr-13 04:32N 51°57' E 001°19'0 0.0
2014-Apr-13 03:32N 51°57' E 001°19'0 0.0
2014-Apr-13 02:32N 51°57' E 001°19'0 0.0
2014-Apr-13 01:32N 51°57' E 001°19'0 0.0
2014-Apr-13 00:32N 51°57' E 001°19'4 3.8
2014-Apr-12 23:33N 51°56' E 001°25'1010.3
2014-Apr-12 22:34N 51°52' E 001°40'4 4.5
2014-Apr-12 21:33N 51°53' E 001°47'3 3.4
2014-Apr-12 20:33N 51°50' E 001°50'7 6.8
2014-Apr-12 19:33N 51°52' E 002°01'6211.2
2014-Apr-12 14:04N 52°40' E 003°04'2811.0
2014-Apr-12 11:33N 52°53' E 003°44'1211.4
2014-Apr-12 10:28N 52°59' E 004°02'1111.8
2014-Apr-12 09:33N 53°06' E 004°16'1211.7
2014-Apr-12 08:32N 53°16' E 004°28'1411.5
2014-Apr-12 07:20N 53°28' E 004°37'911.4
2014-Apr-12 06:32N 53°32' E 004°51'1111.0
2014-Apr-12 05:33N 53°36' E 005°08'1110.7
2014-Apr-12 04:33N 53°40' E 005°25'1111.0
2014-Apr-12 03:33N 53°43' E 005°43'1211.8
2014-Apr-12 02:33N 53°47' E 006°02'4412.9
2014-Apr-11 23:11N 53°57' E 007°13'812.6
2014-Apr-11 22:33N 53°58' E 007°27'1110.9
2014-Apr-11 21:34N 53°54' E 007°44'1212.2
2014-Apr-11 20:33N 53°50' E 008°03'1312.9
2014-Apr-11 19:33N 53°42' E 008°20'10 9.7
2014-Apr-11 18:33N 53°35' E 008°32'0 0.2
2014-Apr-11 17:33N 53°35' E 008°32'0 0.0
2014-Apr-11 16:33N 53°35' E 008°32'0 0.0
2014-Apr-11 15:33N 53°35' E 008°32'0 0.0
2014-Apr-11 14:33N 53°35' E 008°32'0 0.0
2014-Apr-11 13:33N 53°35' E 008°32'0 0.0
2014-Apr-11 12:33N 53°35' E 008°32'0 0.0
2014-Apr-11 11:33N 53°35' E 008°32'0 0.0
2014-Apr-11 10:33N 53°35' E 008°32'0 0.0
2014-Apr-11 09:33N 53°35' E 008°32'0 0.0
2014-Apr-11 08:33N 53°35' E 008°32'0 0.0
2014-Apr-11 07:33N 53°35' E 008°32'0 0.0
2014-Apr-11 06:33N 53°35' E 008°32'0 0.0
2014-Apr-11 05:33N 53°35' E 008°32'0 0.0
2014-Apr-11 04:33N 53°35' E 008°32'0 0.0
2014-Apr-11 03:33N 53°35' E 008°32'1 0.9
2014-Apr-11 02:33N 53°36' E 008°31'1111.3
2014-Apr-11 01:33N 53°43' E 008°16'1312.9
2014-Apr-11 00:33N 53°51' E 007°59'1010.3
2014-Apr-10 23:33N 53°53' E 007°42'1110.5
2014-Apr-10 22:33N 53°54' E 007°24'1414.3
2014-Apr-10 21:33N 53°50' E 007°01'1514.7
2014-Apr-10 20:33N 53°48' E 006°36'1514.8
2014-Apr-10 19:33N 53°43' E 006°12'1515.1
2014-Apr-10 18:33N 53°39' E 005°48'1515.4
2014-Apr-10 17:33N 53°34' E 005°23'1615.8
2014-Apr-10 16:33N 53°28' E 004°58'1514.6
2014-Apr-10 15:33N 53°19' E 004°39'1615.9
2014-Apr-10 14:33N 53°06' E 004°26'1616.1
2014-Apr-10 13:33N 52°51' E 004°14'1616.2
2014-Apr-10 12:33N 52°37' E 004°00'1615.8
2014-Apr-10 11:34N 52°22' E 003°52'1615.8
2014-Apr-10 10:34N 52°07' E 003°55'8 8.2
2014-Apr-10 09:33N 51°60' E 004°02'3 1.2
2014-Apr-10 07:03N 51°57' E 004°04'0 0.0
2014-Apr-10 06:21N 51°57' E 004°04'0 0.0
2014-Apr-10 05:30N 51°57' E 004°04'0 0.0
2014-Apr-10 04:33N 51°57' E 004°04'0 0.0
2014-Apr-10 03:30N 51°57' E 004°04'0 0.0
2014-Apr-10 02:33N 51°57' E 004°04'0 0.0
2014-Apr-10 01:30N 51°57' E 004°04'0 0.0
2014-Apr-10 00:33N 51°57' E 004°04'0 0.0
2014-Apr-09 23:33N 51°57' E 004°04'0 0.0
2014-Apr-09 22:21N 51°57' E 004°04'0 0.0
2014-Apr-09 20:21N 51°57' E 004°04'0 0.0
2014-Apr-09 18:33N 51°57' E 004°04'0 0.0
2014-Apr-09 11:15N 51°57' E 004°04'0 0.0
2014-Apr-09 10:30N 51°57' E 004°04'0 0.0
2014-Apr-09 09:33N 51°57' E 004°04'1 0.3
2014-Apr-09 07:33N 51°57' E 004°05'4 4.4
2014-Apr-09 06:33N 51°60' E 003°59'1111.2
2014-Apr-09 05:33N 51°58' E 003°41'1514.9
2014-Apr-09 04:33N 51°54' E 003°17'3616.7
2014-Apr-09 02:23N 51°38' E 002°25'1517.1
2014-Apr-09 01:31N 51°27' E 002°09'1717.3
2014-Apr-09 00:33N 51°15' E 001°51'1717.1
2014-Apr-08 23:34N 51°02' E 001°34'1716.9
2014-Apr-08 22:33N 50°46' E 001°23'1716.9
2014-Apr-08 21:33N 50°33' E 001°06'1816.8
2014-Apr-08 20:28N 50°26' E 000°40'1617.3
2014-Apr-08 19:34N 50°21' E 000°17'4117.3
2014-Apr-08 17:11N 50°11' W 000°46'1517.6
2014-Apr-08 16:20N 50°07' W 001°08'1517.8
2014-Apr-08 15:31N 50°03' W 001°30'  

Dump ship's entire track history

sailing weather and tide predictions

APL Indonesia — V2EC7 — position and weather